createdAt,value
2023-05-20T00:02:07.714Z,2.87
2023-05-20T00:04:34.498Z,3.03
2023-05-20T00:07:01.422Z,2.70
2023-05-20T00:09:29.787Z,2.60
2023-05-20T00:11:56.537Z,2.70
2023-05-20T00:14:23.320Z,4.67
2023-05-20T00:16:50.280Z,2.90
2023-05-20T00:19:17.189Z,4.60
2023-05-20T00:21:43.977Z,3.23
2023-05-20T00:24:10.799Z,6.03
2023-05-20T00:26:37.592Z,3.40
2023-05-20T00:29:04.427Z,5.37
2023-05-20T00:31:31.366Z,4.20
2023-05-20T00:33:58.167Z,3.50
2023-05-20T00:36:24.981Z,4.10
2023-05-20T00:38:51.795Z,3.40
2023-05-20T00:41:18.583Z,6.20
2023-05-20T00:43:45.351Z,4.03
2023-05-20T00:46:13.052Z,2.73
2023-05-20T00:48:44.136Z,3.67
2023-05-20T00:51:13.023Z,4.50
2023-05-20T00:53:40.332Z,3.40
2023-05-20T00:56:08.813Z,3.97
2023-05-20T00:58:37.973Z,3.70
2023-05-20T01:01:06.461Z,2.90
2023-05-20T01:03:33.813Z,4.27
2023-05-20T01:06:01.248Z,3.83
2023-05-20T01:08:28.719Z,9.23
2023-05-20T01:11:05.851Z,3.73
2023-05-20T01:13:58.014Z,3.20
2023-05-20T01:16:25.258Z,3.93
2023-05-20T01:18:55.926Z,4.73
2023-05-20T01:21:23.172Z,3.70
2023-05-20T01:23:50.034Z,8.00
2023-05-20T01:26:18.692Z,3.10
2023-05-20T01:28:46.401Z,4.13
2023-05-20T01:31:23.804Z,3.67
2023-05-20T01:33:55.787Z,4.27
2023-05-20T01:36:23.461Z,3.10
2023-05-20T01:38:50.886Z,3.80
2023-05-20T01:41:18.394Z,3.53
2023-05-20T01:43:45.581Z,5.13
2023-05-20T01:46:12.537Z,4.50
2023-05-20T01:48:39.332Z,3.00
2023-05-20T01:51:06.251Z,3.17
2023-05-20T01:53:33.142Z,3.23
2023-05-20T01:56:00.007Z,3.23
2023-05-20T01:58:26.993Z,3.57
2023-05-20T02:00:53.866Z,2.97
2023-05-20T02:03:20.962Z,3.80
2023-05-20T02:05:47.824Z,3.53
2023-05-20T02:08:14.717Z,2.93
2023-05-20T02:10:41.530Z,6.23
2023-05-20T02:13:08.344Z,3.73
2023-05-20T02:15:35.534Z,4.27
2023-05-20T02:18:02.655Z,4.20
2023-05-20T02:20:29.642Z,3.20
2023-05-20T02:22:56.428Z,3.00
2023-05-20T02:25:23.265Z,5.23
2023-05-20T02:27:50.056Z,7.30
2023-05-20T02:30:17.370Z,4.43
2023-05-20T02:32:44.302Z,4.03
2023-05-20T02:35:11.994Z,3.47
2023-05-20T02:37:39.531Z,4.00
2023-05-20T02:40:09.269Z,3.50
2023-05-20T02:42:37.819Z,5.90
2023-05-20T02:45:05.139Z,3.70
2023-05-20T02:47:31.947Z,5.70
2023-05-20T02:49:58.768Z,4.27
2023-05-20T02:52:26.243Z,4.30
2023-05-20T02:54:53.320Z,3.53
2023-05-20T02:57:20.449Z,3.47
2023-05-20T02:59:47.878Z,3.50
2023-05-20T03:02:14.809Z,4.00
2023-05-20T03:04:41.752Z,6.87
2023-05-20T03:07:09.074Z,4.23
2023-05-20T03:09:36.094Z,3.53
2023-05-20T03:12:03.122Z,4.83
2023-05-20T03:14:30.429Z,4.03
2023-05-20T03:16:57.378Z,4.97
2023-05-20T03:19:24.409Z,5.17
2023-05-20T03:21:51.390Z,6.20
2023-05-20T03:24:18.316Z,3.63
2023-05-20T03:26:47.097Z,4.63
2023-05-20T03:29:14.204Z,7.13
2023-05-20T03:31:41.628Z,4.43
2023-05-20T03:34:08.717Z,3.60
2023-05-20T03:36:36.077Z,4.33
2023-05-20T03:39:04.511Z,6.57
2023-05-20T03:41:32.853Z,4.47
2023-05-20T03:43:59.740Z,4.87
2023-05-20T03:46:27.264Z,5.30
2023-05-20T03:48:54.167Z,5.67
2023-05-20T03:51:21.898Z,4.77
2023-05-20T03:53:50.409Z,4.73
2023-05-20T03:56:17.204Z,4.00
2023-05-20T03:58:44.210Z,4.13
2023-05-20T04:01:13.261Z,5.20
2023-05-20T04:03:44.612Z,4.80
2023-05-20T04:06:11.548Z,5.17
2023-05-20T04:08:38.380Z,5.23
2023-05-20T04:11:06.104Z,5.00
2023-05-20T04:13:33.053Z,4.87
2023-05-20T04:16:01.492Z,5.70
2023-05-20T04:18:31.746Z,4.97
2023-05-20T04:21:00.188Z,4.47
2023-05-20T04:23:27.117Z,5.27
2023-05-20T04:25:55.187Z,7.37
2023-05-20T04:28:23.961Z,8.27
2023-05-20T04:31:04.388Z,5.00
2023-05-20T04:33:37.826Z,7.23
2023-05-20T04:36:07.599Z,5.10
2023-05-20T04:38:36.035Z,5.73
2023-05-20T04:41:03.131Z,5.53
2023-05-20T04:43:30.586Z,6.57
2023-05-20T04:45:59.823Z,5.97
2023-05-20T04:48:27.551Z,5.63
2023-05-20T04:50:54.450Z,4.93
2023-05-20T04:53:24.069Z,7.13
2023-05-20T04:55:54.200Z,6.53
2023-05-20T04:58:24.353Z,5.60
2023-05-20T05:00:52.336Z,7.00
2023-05-20T05:03:19.396Z,5.33
2023-05-20T05:05:46.231Z,7.10
2023-05-20T05:08:13.165Z,5.47
2023-05-20T05:10:46.172Z,5.67
2023-05-20T05:13:13.166Z,7.30
2023-05-20T05:15:39.989Z,6.70
2023-05-20T05:18:06.903Z,5.43
2023-05-20T05:20:35.098Z,5.93
2023-05-20T05:23:01.987Z,6.17
2023-05-20T05:25:29.016Z,6.53
2023-05-20T05:27:58.367Z,7.37
2023-05-20T05:30:25.561Z,6.60
2023-05-20T05:32:52.609Z,5.70
2023-05-20T05:35:20.084Z,7.97
2023-05-20T05:37:46.980Z,8.77
2023-05-20T05:40:14.374Z,6.43
2023-05-20T05:42:41.321Z,6.57
2023-05-20T05:45:09.400Z,10.33
2023-05-20T05:47:36.813Z,6.27
2023-05-20T05:50:04.610Z,5.70
2023-05-20T05:52:33.668Z,6.00
2023-05-20T05:55:03.087Z,7.67
2023-05-20T05:57:31.028Z,6.50
2023-05-20T05:59:58.756Z,6.20
2023-05-20T06:02:27.203Z,10.37
2023-05-20T06:04:54.373Z,5.47
2023-05-20T06:07:21.660Z,7.43
2023-05-20T06:09:48.437Z,6.07
2023-05-20T06:12:15.463Z,6.37
2023-05-20T06:14:42.368Z,6.40
2023-05-20T06:17:09.301Z,6.43
2023-05-20T06:19:36.442Z,6.30
2023-05-20T06:22:03.553Z,5.53
2023-05-20T06:24:30.930Z,7.10
2023-05-20T06:26:57.981Z,6.47
2023-05-20T06:29:24.912Z,8.00
2023-05-20T06:31:51.689Z,8.77
2023-05-20T06:34:18.701Z,7.27
2023-05-20T06:36:46.167Z,8.87
2023-05-20T06:39:12.982Z,5.63
2023-05-20T06:41:44.157Z,5.70
2023-05-20T06:44:11.244Z,5.83
2023-05-20T06:46:38.088Z,8.70
2023-05-20T06:49:07.196Z,5.60
2023-05-20T06:51:34.960Z,7.17
2023-05-20T06:54:01.892Z,5.97
2023-05-20T06:56:29.021Z,5.83
2023-05-20T06:58:55.907Z,5.70
2023-05-20T07:01:22.896Z,6.03
2023-05-20T07:03:50.185Z,5.83
2023-05-20T07:06:17.440Z,5.57
2023-05-20T07:08:44.518Z,6.97
2023-05-20T07:11:12.091Z,5.27
2023-05-20T07:13:39.047Z,5.27
2023-05-20T07:16:06.558Z,8.17
2023-05-20T07:18:35.361Z,7.10
2023-05-20T07:21:02.538Z,7.80
2023-05-20T07:23:40.254Z,5.57
2023-05-20T07:26:07.136Z,5.30
2023-05-20T07:28:35.642Z,9.03
2023-05-20T07:31:02.560Z,5.07
2023-05-20T07:33:31.762Z,5.83
2023-05-20T07:35:59.194Z,7.73
2023-05-20T07:38:26.132Z,5.20
2023-05-20T07:41:01.359Z,8.40
2023-05-20T07:43:28.948Z,6.47
2023-05-20T07:45:56.811Z,5.77
2023-05-20T07:48:23.743Z,7.03
2023-05-20T07:50:50.670Z,6.93
2023-05-20T07:53:18.661Z,5.27
2023-05-20T07:55:45.888Z,10.20
2023-05-20T07:58:12.935Z,6.40
2023-05-20T08:00:39.779Z,8.80
2023-05-20T08:03:08.608Z,5.53
2023-05-20T08:06:02.733Z,4.50
2023-05-20T08:08:30.811Z,5.63
2023-05-20T08:11:07.231Z,5.13
2023-05-20T08:13:34.052Z,8.67
2023-05-20T08:16:03.965Z,4.90
2023-05-20T08:18:30.904Z,8.43
2023-05-20T08:20:57.715Z,5.30
2023-05-20T08:23:25.891Z,4.27
2023-05-20T08:25:52.992Z,5.13
2023-05-20T08:28:22.038Z,5.83
2023-05-20T08:30:49.016Z,5.27
2023-05-20T08:33:16.279Z,5.90
2023-05-20T08:35:43.129Z,5.97
2023-05-20T08:38:10.107Z,4.57
2023-05-20T08:40:37.120Z,5.97
2023-05-20T08:43:04.629Z,4.37
2023-05-20T08:45:33.961Z,6.27
2023-05-20T08:48:06.139Z,4.83
2023-05-20T08:50:33.584Z,4.90
2023-05-20T08:53:00.482Z,5.37
2023-05-20T08:55:36.184Z,4.30
2023-05-20T08:58:03.426Z,4.40
2023-05-20T09:00:30.555Z,4.28
2023-05-20T09:03:01.027Z,4.38
2023-05-20T09:05:28.899Z,5.15
2023-05-20T09:08:09.706Z,4.78
2023-05-20T09:10:37.956Z,4.00
2023-05-20T09:13:06.181Z,5.53
2023-05-20T09:15:36.985Z,8.43
2023-05-20T09:18:09.143Z,11.93
2023-05-20T09:20:37.934Z,59.58
2023-05-20T09:23:07.144Z,36.72
2023-05-20T09:25:34.744Z,24.00
2023-05-20T09:28:03.109Z,18.23
2023-05-20T09:30:29.935Z,7.60
2023-05-20T09:32:58.985Z,9.70
2023-05-20T09:35:27.134Z,6.93
2023-05-20T09:37:56.010Z,20.83
2023-05-20T09:40:29.507Z,4.10
2023-05-20T09:43:08.897Z,3.70
2023-05-20T09:45:36.237Z,3.28
2023-05-20T09:48:05.604Z,3.95
2023-05-20T09:50:32.693Z,4.00
2023-05-20T09:53:03.574Z,3.25
2023-05-20T09:55:31.819Z,3.85
2023-05-20T09:58:03.034Z,3.70
2023-05-20T10:00:30.065Z,7.50
2023-05-20T10:05:29.621Z,11.40
2023-05-20T10:08:13.210Z,4.35
2023-05-20T10:11:12.649Z,4.25
2023-05-20T10:13:53.893Z,14.85
2023-05-20T10:16:43.268Z,3.90
2023-05-20T10:19:31.157Z,4.88
2023-05-20T10:22:03.029Z,5.10
2023-05-20T10:24:41.295Z,3.80
2023-05-20T10:27:15.356Z,3.40
2023-05-20T10:29:52.069Z,4.63
2023-05-20T10:32:29.380Z,5.60
2023-05-20T10:35:05.360Z,4.97
2023-05-20T10:37:44.121Z,3.95
2023-05-20T10:40:13.289Z,5.22
2023-05-20T10:42:40.926Z,6.90
2023-05-20T10:45:08.875Z,4.43
2023-05-20T10:47:36.703Z,4.38
2023-05-20T10:50:05.997Z,4.53
2023-05-20T10:52:38.862Z,6.13
2023-05-20T10:55:06.281Z,4.15
2023-05-20T10:57:34.542Z,3.17
2023-05-20T11:00:01.992Z,3.45
2023-05-20T11:02:29.317Z,4.45
2023-05-20T11:04:58.245Z,8.00
2023-05-20T11:07:29.773Z,7.57
2023-05-20T11:09:57.368Z,3.28
2023-05-20T11:12:26.263Z,5.28
2023-05-20T11:14:53.378Z,3.67
2023-05-20T11:17:20.791Z,4.90
2023-05-20T11:19:48.392Z,2.97
2023-05-20T11:22:15.554Z,3.40
2023-05-20T11:24:42.548Z,4.80
2023-05-20T11:27:09.655Z,5.40
2023-05-20T11:29:37.055Z,3.15
2023-05-20T11:32:04.141Z,3.72
2023-05-20T11:34:38.209Z,3.03
2023-05-20T11:37:09.906Z,4.70
2023-05-20T11:39:37.813Z,3.38
2023-05-20T11:42:06.133Z,4.22
2023-05-20T11:44:33.251Z,3.20
2023-05-20T11:47:03.781Z,2.95
2023-05-20T11:49:31.235Z,4.88
2023-05-20T11:51:58.782Z,3.28
2023-05-20T11:54:26.128Z,5.55
2023-05-20T11:56:54.638Z,5.53
2023-05-20T11:59:24.421Z,8.10
2023-05-20T12:01:51.234Z,6.20
2023-05-20T12:04:18.551Z,6.22
2023-05-20T12:06:45.829Z,3.05
2023-05-20T12:09:14.060Z,6.95
2023-05-20T12:11:41.689Z,3.10
2023-05-20T12:14:09.371Z,3.90
2023-05-20T12:16:37.505Z,2.85
2023-05-20T12:19:04.807Z,3.22
2023-05-20T12:21:31.991Z,3.10
2023-05-20T12:24:02.100Z,4.05
2023-05-20T12:26:29.864Z,4.13
2023-05-20T12:28:57.044Z,3.72
2023-05-20T12:31:24.812Z,3.70
2023-05-20T12:33:51.635Z,3.42
2023-05-20T12:36:19.558Z,4.88
2023-05-20T12:38:46.521Z,2.60
2023-05-20T12:41:13.326Z,3.40
2023-05-20T12:43:40.239Z,3.42
2023-05-20T12:46:07.127Z,4.15
2023-05-20T12:48:33.912Z,2.70
2023-05-20T12:51:00.931Z,4.57
2023-05-20T12:53:27.733Z,4.93
2023-05-20T12:55:54.607Z,4.72
2023-05-20T12:58:21.427Z,2.55
2023-05-20T13:00:48.286Z,6.07
2023-05-20T13:03:15.445Z,3.40
2023-05-20T13:05:42.703Z,2.60
2023-05-20T13:08:11.025Z,4.93
2023-05-20T13:10:38.267Z,3.53
2023-05-20T13:13:05.211Z,3.03
2023-05-20T13:15:33.207Z,4.40
2023-05-20T13:18:01.513Z,3.50
2023-05-20T13:20:29.583Z,3.47
2023-05-20T13:22:57.449Z,5.80
2023-05-20T13:25:24.426Z,6.13
2023-05-20T13:27:51.742Z,3.70
2023-05-20T13:30:18.537Z,5.80
2023-05-20T13:32:46.234Z,2.75
2023-05-20T13:35:13.267Z,2.92
2023-05-20T13:37:40.104Z,3.58
2023-05-20T13:40:07.630Z,4.40
2023-05-20T13:42:34.524Z,3.55
2023-05-20T13:45:01.312Z,3.63
2023-05-20T13:47:28.300Z,2.80
2023-05-20T13:49:55.304Z,3.60
2023-05-20T13:52:22.094Z,4.50
2023-05-20T13:54:48.851Z,3.40
2023-05-20T13:57:16.196Z,3.92
2023-05-20T13:59:43.270Z,6.53
2023-05-20T14:02:10.722Z,4.55
2023-05-20T14:04:39.505Z,3.13
2023-05-20T14:07:09.266Z,3.53
2023-05-20T14:09:36.640Z,4.10
2023-05-20T14:12:04.904Z,9.13
2023-05-20T14:14:31.805Z,5.03
2023-05-20T14:16:58.619Z,3.60
2023-05-20T14:19:27.023Z,4.88
2023-05-20T14:21:53.961Z,3.88
2023-05-20T14:24:23.468Z,3.95
2023-05-20T14:26:50.663Z,4.65
2023-05-20T14:29:17.484Z,2.90
2023-05-20T14:31:44.704Z,3.55
2023-05-20T14:34:11.560Z,4.07
2023-05-20T14:36:38.866Z,3.90
2023-05-20T14:39:05.711Z,3.63
2023-05-20T14:41:32.552Z,2.95
2023-05-20T14:43:59.525Z,4.93
2023-05-20T14:46:26.510Z,3.47
2023-05-20T14:48:53.346Z,2.80
2023-05-20T14:51:20.125Z,2.65
2023-05-20T14:53:46.902Z,5.82
2023-05-20T14:56:13.706Z,3.72
2023-05-20T14:58:41.208Z,3.55
2023-05-20T15:01:08.152Z,2.90
2023-05-20T15:03:35.046Z,2.72
2023-05-20T15:06:02.055Z,2.45
2023-05-20T15:08:28.835Z,4.15
2023-05-20T15:10:55.858Z,2.58
2023-05-20T15:13:22.645Z,2.10
2023-05-20T15:15:49.454Z,2.45
2023-05-20T15:18:16.792Z,5.82
2023-05-20T15:20:43.866Z,5.47
2023-05-20T15:23:11.266Z,4.00
2023-05-20T15:25:38.105Z,3.13
2023-05-20T15:28:05.070Z,6.68
2023-05-20T15:30:31.842Z,2.95
2023-05-20T15:32:58.855Z,3.42
2023-05-20T15:35:25.734Z,7.85
2023-05-20T15:37:53.039Z,2.70
2023-05-20T15:40:19.840Z,2.60
2023-05-20T15:42:47.430Z,2.50
2023-05-20T15:45:14.248Z,3.40
2023-05-20T15:47:41.156Z,3.42
2023-05-20T15:50:08.676Z,2.85
2023-05-20T15:52:35.788Z,3.50
2023-05-20T15:55:02.981Z,5.68
2023-05-20T15:57:30.634Z,6.53
2023-05-20T15:59:57.710Z,2.83
2023-05-20T16:02:25.036Z,3.65
2023-05-20T16:04:52.393Z,3.20
2023-05-20T16:07:19.429Z,2.95
2023-05-20T16:09:46.268Z,4.07
2023-05-20T16:12:13.052Z,3.08
2023-05-20T16:14:39.892Z,5.72
2023-05-20T16:17:06.654Z,2.88
2023-05-20T16:19:33.598Z,3.28
2023-05-20T16:22:00.512Z,5.50
2023-05-20T16:24:27.386Z,6.15
2023-05-20T16:26:54.278Z,6.43
2023-05-20T16:29:21.350Z,4.25
2023-05-20T16:31:48.229Z,5.90
2023-05-20T16:34:16.360Z,4.22
2023-05-20T16:36:45.082Z,3.33
2023-05-20T16:39:12.838Z,3.30
2023-05-20T16:41:39.641Z,3.97
2023-05-20T16:44:06.492Z,4.43
2023-05-20T16:46:33.662Z,5.47
2023-05-20T16:49:00.657Z,3.45
2023-05-20T16:51:27.759Z,5.00
2023-05-20T16:53:54.612Z,4.20
2023-05-20T16:56:22.988Z,5.47
2023-05-20T16:58:52.685Z,4.03
2023-05-20T17:01:20.275Z,5.45
2023-05-20T17:03:47.148Z,4.50
2023-05-20T17:06:13.976Z,7.68
2023-05-20T17:08:41.201Z,7.10
2023-05-20T17:11:08.012Z,3.95
2023-05-20T17:13:34.917Z,6.28
2023-05-20T17:16:01.824Z,4.15
2023-05-20T17:18:28.600Z,5.35
2023-05-20T17:20:55.430Z,3.38
2023-05-20T17:23:22.295Z,5.13
2023-05-20T17:25:49.128Z,3.80
2023-05-20T17:28:15.940Z,3.33
2023-05-20T17:30:42.709Z,4.03
2023-05-20T17:33:09.676Z,4.05
2023-05-20T17:35:37.473Z,4.82
2023-05-20T17:38:04.462Z,4.00
2023-05-20T17:40:31.254Z,4.60
2023-05-20T17:42:58.062Z,5.55
2023-05-20T17:45:24.927Z,4.13
2023-05-20T17:47:51.795Z,6.55
2023-05-20T17:50:18.761Z,4.00
2023-05-20T17:52:45.564Z,4.40
2023-05-20T17:55:12.980Z,4.78
2023-05-20T17:57:39.908Z,5.10
2023-05-20T18:00:09.677Z,4.30
2023-05-20T18:02:38.425Z,4.25
2023-05-20T18:05:06.861Z,7.32
2023-05-20T18:07:33.610Z,4.82
2023-05-20T18:10:00.434Z,3.75
2023-05-20T18:12:27.214Z,4.72
2023-05-20T18:14:54.040Z,3.95
2023-05-20T18:17:20.953Z,4.00
2023-05-20T18:19:47.761Z,4.47
2023-05-20T18:22:14.529Z,4.07
2023-05-20T18:24:41.989Z,6.23
2023-05-20T18:27:08.828Z,5.07
2023-05-20T18:29:35.685Z,4.53
2023-05-20T18:32:02.676Z,5.77
2023-05-20T18:34:29.651Z,6.37
2023-05-20T18:36:56.554Z,4.83
2023-05-20T18:39:23.611Z,4.23
2023-05-20T18:41:50.642Z,4.40
2023-05-20T18:44:19.074Z,4.50
2023-05-20T18:46:46.182Z,6.87
2023-05-20T18:49:13.054Z,4.07
2023-05-20T18:51:40.742Z,5.37
2023-05-20T18:54:07.654Z,4.70
2023-05-20T18:56:34.797Z,4.30
2023-05-20T18:59:01.736Z,5.23
2023-05-20T19:01:28.579Z,3.73
2023-05-20T19:03:55.424Z,4.10
2023-05-20T19:06:22.557Z,3.87
2023-05-20T19:08:49.573Z,4.73
2023-05-20T19:11:16.458Z,5.57
2023-05-20T19:13:43.290Z,4.50
2023-05-20T19:16:10.578Z,4.73
2023-05-20T19:18:37.535Z,7.43
2023-05-20T19:21:04.557Z,4.77
2023-05-20T19:23:32.405Z,7.47
2023-05-20T19:25:59.226Z,5.93
2023-05-20T19:28:26.147Z,4.83
2023-05-20T19:30:53.296Z,4.13
2023-05-20T19:33:21.370Z,4.00
2023-05-20T19:35:48.449Z,4.10
2023-05-20T19:38:15.510Z,4.67
2023-05-20T19:40:43.772Z,5.23
2023-05-20T19:43:11.358Z,4.87
2023-05-20T19:45:38.900Z,5.27
2023-05-20T19:48:07.066Z,4.50
2023-05-20T19:50:34.504Z,4.10
2023-05-20T19:53:06.061Z,5.63
2023-05-20T19:55:34.309Z,5.70
2023-05-20T19:58:01.516Z,5.03
2023-05-20T20:00:28.388Z,4.57
2023-05-20T20:02:57.037Z,5.47
2023-05-20T20:05:25.853Z,4.27
2023-05-20T20:07:52.948Z,4.20
2023-05-20T20:10:20.001Z,5.20
2023-05-20T20:12:46.885Z,5.77
2023-05-20T20:15:14.293Z,5.60
2023-05-20T20:17:45.465Z,6.10
2023-05-20T20:20:14.049Z,4.37
2023-05-20T20:22:41.546Z,5.73
2023-05-20T20:25:09.056Z,4.70
2023-05-20T20:27:35.859Z,5.63
2023-05-20T20:30:02.712Z,4.77
2023-05-20T20:32:29.547Z,4.87
2023-05-20T20:34:57.953Z,4.67
2023-05-20T20:37:26.819Z,5.47
2023-05-20T20:39:54.576Z,4.17
2023-05-20T20:42:24.921Z,4.47
2023-05-20T20:44:52.885Z,4.07
2023-05-20T20:47:19.715Z,4.00
2023-05-20T20:49:46.549Z,3.77
2023-05-20T20:52:13.416Z,4.60
2023-05-20T20:54:42.736Z,4.73
2023-05-20T20:57:10.049Z,5.47
2023-05-20T20:59:36.886Z,5.13
2023-05-20T21:02:04.474Z,6.17
2023-05-20T21:04:31.574Z,6.00
2023-05-20T21:07:02.148Z,5.90
2023-05-20T21:09:29.241Z,6.43
2023-05-20T21:11:57.170Z,7.13
2023-05-20T21:14:24.546Z,5.80
2023-05-20T21:16:51.618Z,6.20
2023-05-20T21:19:18.540Z,5.07
2023-05-20T21:21:45.658Z,5.47
2023-05-20T21:24:12.494Z,5.43
2023-05-20T21:26:39.449Z,5.93
2023-05-20T21:29:07.352Z,4.47
2023-05-20T21:31:34.275Z,4.73
2023-05-20T21:34:01.162Z,4.67
2023-05-20T21:36:27.993Z,5.17
2023-05-20T21:38:54.885Z,4.73
2023-05-20T21:41:21.680Z,5.03
2023-05-20T21:43:48.485Z,4.43
2023-05-20T21:46:15.309Z,5.97
2023-05-20T21:48:42.149Z,6.43
2023-05-20T21:51:08.966Z,7.87
2023-05-20T21:53:35.722Z,5.70
2023-05-20T21:56:02.718Z,6.27
2023-05-20T21:58:29.540Z,9.90
2023-05-20T22:00:56.496Z,7.93
2023-05-20T22:03:23.480Z,8.20
2023-05-20T22:05:50.379Z,8.20
2023-05-20T22:08:17.276Z,7.23
2023-05-20T22:10:44.227Z,10.40
2023-05-20T22:13:13.515Z,7.87
2023-05-20T22:15:40.673Z,8.70
2023-05-20T22:18:07.885Z,9.70
2023-05-20T22:20:35.025Z,8.27
2023-05-20T22:23:01.934Z,8.27
2023-05-20T22:25:28.747Z,8.47
2023-05-20T22:27:55.750Z,9.30
2023-05-20T22:30:22.639Z,9.57
2023-05-20T22:32:49.512Z,8.00
2023-05-20T22:35:16.510Z,10.47
2023-05-20T22:37:43.339Z,7.37
2023-05-20T22:40:10.655Z,8.07
2023-05-20T22:42:37.469Z,13.27
2023-05-20T22:45:04.756Z,7.37
2023-05-20T22:47:31.638Z,7.57
2023-05-20T22:50:02.283Z,8.53
2023-05-20T22:52:29.707Z,9.60
2023-05-20T22:54:56.991Z,9.43
2023-05-20T22:57:25.050Z,8.73
2023-05-20T22:59:53.871Z,9.27
2023-05-20T23:02:20.942Z,7.53
2023-05-20T23:04:48.017Z,10.70
2023-05-20T23:07:15.362Z,9.67
2023-05-20T23:09:42.179Z,11.40
2023-05-20T23:12:09.048Z,12.27
2023-05-20T23:14:35.954Z,10.17
2023-05-20T23:17:02.871Z,7.87
2023-05-20T23:19:29.794Z,10.97
2023-05-20T23:21:56.949Z,11.67
2023-05-20T23:24:23.881Z,10.13
2023-05-20T23:26:51.141Z,9.70
2023-05-20T23:29:17.947Z,9.10
2023-05-20T23:31:44.768Z,8.77
2023-05-20T23:34:11.931Z,8.63
2023-05-20T23:36:41.856Z,10.40
2023-05-20T23:39:08.816Z,9.20
2023-05-20T23:41:35.811Z,8.33
2023-05-20T23:44:03.880Z,7.80
2023-05-20T23:46:31.428Z,7.63
2023-05-20T23:49:00.222Z,8.63
2023-05-20T23:51:28.024Z,9.37
2023-05-20T23:53:55.110Z,9.53
2023-05-20T23:56:22.501Z,8.83
2023-05-20T23:58:49.346Z,8.80
